Rockwell Springs, New York
Current Conditions -  °F | °C
As of 8:54 PM on Tuesday 25 Nov 2014 (Local Time) from KSYR Reporting Station
Overcast Overcast  
Wind Chill: 33°   Ceiling: 2800
Heat Index: 40°   Visibility: 10mi
Dew Point: 32°   Wind: 12mph
Humidity: 73%   Direction: 290°WNW
Pressure: 30.14"   Gusts: NA
Location:  42.9377°N, 76.1727°W
Report Text: KSYR 260154Z 29010KT 10SM FEW020 BKN028 OVC036 04/00 A3014 RMK AO2 SLP207 BKN V OVC T00440000
Loading
Personal Weather Stations






























Interactive Weather Map New forecast layout! Learn more

10-Day Weather Forecast

Advertisements
Track Severe Weather on mobile